createdAt,value
2023-04-16T00:00:14.168Z,338.30
2023-04-16T00:01:14.169Z,334.40
2023-04-16T00:02:14.297Z,313.00
2023-04-16T00:03:14.168Z,274.70
2023-04-16T00:04:14.415Z,359.40
2023-04-16T00:05:13.839Z,338.70
2023-04-16T00:06:14.440Z,354.40
2023-04-16T00:07:13.869Z,327.60
2023-04-16T00:08:14.568Z,347.20
2023-04-16T00:09:13.951Z,312.30
2023-04-16T00:10:14.134Z,300.20
2023-04-16T00:11:13.804Z,292.80
2023-04-16T00:12:14.167Z,285.20
2023-04-16T00:13:14.264Z,300.10
2023-04-16T00:14:14.610Z,256.50
2023-04-16T00:15:13.785Z,324.80
2023-04-16T00:16:13.775Z,350.70
2023-04-16T00:17:13.898Z,357.30
2023-04-16T00:18:14.448Z,315.70
2023-04-16T00:19:13.909Z,313.50
2023-04-16T00:20:13.854Z,301.80
2023-04-16T00:21:13.777Z,303.00
2023-04-16T00:22:13.786Z,326.30
2023-04-16T00:23:13.836Z,300.50
2023-04-16T00:24:13.779Z,283.90
2023-04-16T00:25:15.210Z,317.30
2023-04-16T00:26:13.851Z,326.80
2023-04-16T00:27:13.934Z,263.40
2023-04-16T00:28:14.075Z,283.60
2023-04-16T00:29:13.695Z,314.90
2023-04-16T00:30:14.148Z,288.10
2023-04-16T00:31:14.238Z,318.70
2023-04-16T00:32:13.932Z,316.00
2023-04-16T00:33:13.811Z,285.20
2023-04-16T00:34:14.194Z,302.00
2023-04-16T00:35:14.049Z,279.60
2023-04-16T00:36:13.674Z,281.10
2023-04-16T00:37:13.888Z,267.40
2023-04-16T00:38:13.831Z,332.60
2023-04-16T00:39:13.965Z,298.60
2023-04-16T00:40:14.446Z,292.50
2023-04-16T00:41:13.591Z,306.20
2023-04-16T00:42:14.149Z,287.10
2023-04-16T00:43:13.836Z,322.20
2023-04-16T00:44:14.061Z,309.80
2023-04-16T00:45:14.623Z,287.70
2023-04-16T00:46:14.034Z,274.70
2023-04-16T00:47:13.616Z,296.80
2023-04-16T00:48:13.546Z,318.20
2023-04-16T00:49:13.551Z,288.60
2023-04-16T00:50:13.550Z,274.50
2023-04-16T00:51:13.586Z,332.90
2023-04-16T00:52:13.611Z,287.70
2023-04-16T00:53:13.618Z,265.00
2023-04-16T00:54:13.626Z,294.90
2023-04-16T00:55:13.493Z,280.10
2023-04-16T00:56:13.505Z,279.80
2023-04-16T00:57:13.490Z,289.40
2023-04-16T00:58:13.468Z,290.50
2023-04-16T00:59:13.465Z,331.30
2023-04-16T01:00:13.528Z,286.00
2023-04-16T01:01:13.536Z,302.30
2023-04-16T01:02:13.644Z,281.10
2023-04-16T01:03:13.542Z,308.80
2023-04-16T01:04:13.577Z,311.90
2023-04-16T01:05:13.491Z,276.90
2023-04-16T01:06:13.490Z,322.00
2023-04-16T01:07:13.504Z,307.10
2023-04-16T01:08:13.410Z,312.40
2023-04-16T01:09:13.409Z,316.40
2023-04-16T01:10:13.460Z,278.80
2023-04-16T01:11:13.580Z,337.00
2023-04-16T01:12:13.400Z,258.80
2023-04-16T01:13:13.380Z,288.60
2023-04-16T01:14:13.413Z,320.30
2023-04-16T01:15:13.394Z,252.10
2023-04-16T01:16:13.435Z,271.50
2023-04-16T01:17:13.374Z,268.00
2023-04-16T01:18:13.360Z,317.00
2023-04-16T01:19:13.654Z,283.50
2023-04-16T01:20:13.562Z,323.80
2023-04-16T01:21:13.328Z,244.30
2023-04-16T01:22:13.321Z,265.90
2023-04-16T01:23:13.717Z,302.00
2023-04-16T01:24:13.301Z,279.10
2023-04-16T01:25:13.283Z,299.40
2023-04-16T01:26:13.280Z,354.20
2023-04-16T01:27:13.285Z,286.30
2023-04-16T01:28:13.782Z,344.90
2023-04-16T01:29:13.260Z,352.60
2023-04-16T01:30:13.257Z,326.40
2023-04-16T01:31:13.297Z,309.80
2023-04-16T01:32:13.298Z,260.70
2023-04-16T01:33:13.844Z,295.70
2023-04-16T01:34:13.748Z,273.50
2023-04-16T01:35:13.315Z,240.20
2023-04-16T01:36:13.375Z,316.10
2023-04-16T01:37:13.240Z,344.10
2023-04-16T01:38:13.260Z,359.10
2023-04-16T01:39:13.201Z,335.90
2023-04-16T01:40:13.336Z,262.60
2023-04-16T01:41:13.391Z,275.10
2023-04-16T01:42:13.453Z,276.00
2023-04-16T01:43:13.178Z,336.20
2023-04-16T01:44:13.192Z,331.80
2023-04-16T01:45:13.196Z,321.60
2023-04-16T01:46:13.227Z,302.20
2023-04-16T01:47:13.228Z,301.30
2023-04-16T01:48:13.200Z,255.40
2023-04-16T01:49:13.220Z,293.30
2023-04-16T01:50:13.201Z,306.90
2023-04-16T01:51:13.226Z,264.50
2023-04-16T01:52:13.232Z,295.70
2023-04-16T01:53:13.110Z,302.30
2023-04-16T01:54:13.115Z,362.40
2023-04-16T01:55:13.116Z,346.60
2023-04-16T01:56:13.095Z,274.30
2023-04-16T01:57:13.097Z,332.90
2023-04-16T01:58:13.145Z,324.70
2023-04-16T01:59:13.169Z,229.30
2023-04-16T02:00:13.173Z,314.20
2023-04-16T02:01:13.219Z,288.50
2023-04-16T02:02:13.169Z,268.40
2023-04-16T02:03:13.403Z,241.20
2023-04-16T02:04:13.259Z,288.50
2023-04-16T02:05:13.242Z,328.80
2023-04-16T02:06:13.269Z,275.10
2023-04-16T02:07:13.277Z,244.50
2023-04-16T02:08:13.108Z,252.60
2023-04-16T02:09:13.294Z,209.70
2023-04-16T02:10:13.229Z,242.60
2023-04-16T02:11:13.329Z,275.50
2023-04-16T02:12:13.294Z,231.10
2023-04-16T02:13:12.962Z,283.30
2023-04-16T02:14:13.034Z,244.70
2023-04-16T02:15:12.958Z,269.00
2023-04-16T02:16:13.009Z,266.80
2023-04-16T02:17:13.185Z,238.30
2023-04-16T02:18:13.118Z,270.00
2023-04-16T02:19:13.173Z,182.10
2023-04-16T02:20:13.225Z,259.30
2023-04-16T02:21:13.281Z,247.10
2023-04-16T02:22:13.322Z,222.90
2023-04-16T02:23:13.093Z,205.80
2023-04-16T02:24:12.899Z,234.70
2023-04-16T02:25:13.266Z,208.30
2023-04-16T02:26:13.506Z,199.60
2023-04-16T02:27:13.525Z,208.00
2023-04-16T02:28:13.552Z,241.30
2023-04-16T02:29:12.976Z,227.60
2023-04-16T02:30:12.974Z,209.80
2023-04-16T02:31:12.978Z,221.10
2023-04-16T02:32:13.156Z,184.40
2023-04-16T02:33:13.022Z,197.80
2023-04-16T02:34:13.032Z,200.20
2023-04-16T02:35:13.042Z,186.70
2023-04-16T02:36:13.076Z,187.50
2023-04-16T02:37:13.108Z,217.50
2023-04-16T02:38:12.864Z,186.90
2023-04-16T02:39:12.807Z,181.00
2023-04-16T02:40:12.865Z,193.40
2023-04-16T02:41:12.864Z,194.50
2023-04-16T02:42:12.921Z,178.30
2023-04-16T02:43:12.955Z,213.50
2023-04-16T02:44:13.015Z,181.10
2023-04-16T02:45:13.085Z,193.90
2023-04-16T02:46:12.908Z,182.80
2023-04-16T02:47:13.159Z,175.30
2023-04-16T02:48:12.815Z,173.90
2023-04-16T02:49:13.162Z,204.40
2023-04-16T02:50:12.766Z,208.50
2023-04-16T02:51:12.703Z,187.00
2023-04-16T02:52:15.022Z,196.40
2023-04-16T02:53:12.825Z,176.90
2023-04-16T02:54:12.856Z,160.80
2023-04-16T02:55:12.885Z,200.30
2023-04-16T02:56:12.928Z,197.00
2023-04-16T02:57:12.974Z,192.10
2023-04-16T02:58:13.026Z,200.50
2023-04-16T02:59:12.896Z,166.80
2023-04-16T03:00:12.807Z,157.80
2023-04-16T03:01:13.031Z,158.10
2023-04-16T03:02:13.260Z,181.10
2023-04-16T03:03:12.694Z,160.10
2023-04-16T03:04:12.738Z,153.00
2023-04-16T03:05:12.685Z,152.20
2023-04-16T03:06:12.709Z,166.70
2023-04-16T03:07:13.204Z,173.30
2023-04-16T03:08:12.618Z,168.20
2023-04-16T03:09:13.446Z,143.60
2023-04-16T03:10:13.499Z,160.10
2023-04-16T03:11:13.406Z,142.90
2023-04-16T03:12:12.995Z,142.20
2023-04-16T03:13:12.777Z,142.10
2023-04-16T03:14:12.763Z,160.90
2023-04-16T03:15:13.531Z,170.50
2023-04-16T03:16:12.581Z,140.80
2023-04-16T03:17:12.550Z,149.40
2023-04-16T03:18:12.580Z,139.50
2023-04-16T03:19:12.599Z,145.90
2023-04-16T03:20:12.734Z,138.20
2023-04-16T03:21:13.257Z,139.90
2023-04-16T03:22:13.011Z,152.30
2023-04-16T03:23:12.498Z,163.20
2023-04-16T03:24:12.510Z,156.60
2023-04-16T03:25:12.767Z,134.30
2023-04-16T03:26:12.962Z,141.70
2023-04-16T03:27:12.922Z,138.50
2023-04-16T03:28:12.460Z,142.50
2023-04-16T03:29:12.509Z,129.80
2023-04-16T03:30:12.455Z,130.20
2023-04-16T03:31:12.496Z,143.30
2023-04-16T03:32:12.673Z,145.90
2023-04-16T03:33:12.476Z,136.60
2023-04-16T03:34:12.485Z,132.90
2023-04-16T03:35:12.423Z,136.10
2023-04-16T03:36:12.494Z,127.20
2023-04-16T03:37:12.519Z,124.80
2023-04-16T03:38:12.603Z,138.40
2023-04-16T03:39:12.582Z,148.30
2023-04-16T03:40:12.653Z,128.60
2023-04-16T03:41:12.413Z,143.80
2023-04-16T03:42:12.849Z,137.30
2023-04-16T03:43:12.787Z,146.50
2023-04-16T03:44:12.823Z,137.80
2023-04-16T03:45:12.889Z,130.50
2023-04-16T03:46:13.008Z,151.90
2023-04-16T03:47:12.338Z,131.30
2023-04-16T03:48:12.784Z,122.30
2023-04-16T03:49:12.444Z,122.60
2023-04-16T03:50:12.341Z,137.20
2023-04-16T03:51:12.387Z,132.30
2023-04-16T03:52:12.332Z,124.20
2023-04-16T03:53:12.737Z,125.10
2023-04-16T03:54:12.418Z,122.90
2023-04-16T03:55:13.284Z,158.40
2023-04-16T03:56:12.524Z,119.30
2023-04-16T03:57:12.316Z,149.10
2023-04-16T03:58:13.006Z,132.40
2023-04-16T03:59:13.154Z,125.20
2023-04-16T04:00:13.086Z,128.40
2023-04-16T04:01:12.388Z,120.10
2023-04-16T04:02:12.333Z,137.20
2023-04-16T04:03:12.566Z,119.70
2023-04-16T04:04:12.407Z,113.60
2023-04-16T04:05:12.260Z,112.20
2023-04-16T04:06:12.285Z,133.10
2023-04-16T04:07:12.301Z,116.20
2023-04-16T04:08:12.347Z,109.40
2023-04-16T04:09:12.397Z,119.10
2023-04-16T04:10:12.447Z,99.00
2023-04-16T04:11:12.491Z,111.00
2023-04-16T04:12:12.290Z,117.40
2023-04-16T04:13:12.506Z,123.00
2023-04-16T04:14:12.345Z,115.40
2023-04-16T04:15:12.444Z,113.40
2023-04-16T04:16:12.439Z,120.10
2023-04-16T04:17:12.257Z,125.50
2023-04-16T04:18:12.590Z,122.20
2023-04-16T04:19:12.164Z,117.90
2023-04-16T04:20:12.194Z,123.70
2023-04-16T04:21:12.195Z,123.20
2023-04-16T04:22:12.917Z,137.90
2023-04-16T04:23:12.683Z,145.70
2023-04-16T04:24:12.390Z,149.10
2023-04-16T04:25:12.958Z,120.60
2023-04-16T04:26:12.534Z,134.10
2023-04-16T04:27:12.195Z,123.80
2023-04-16T04:28:12.348Z,116.90
2023-04-16T04:29:12.227Z,110.90
2023-04-16T04:30:12.072Z,114.00
2023-04-16T04:31:12.249Z,108.80
2023-04-16T04:32:12.197Z,123.10
2023-04-16T04:33:12.031Z,122.60
2023-04-16T04:34:12.132Z,117.00
2023-04-16T04:35:12.042Z,114.30
2023-04-16T04:36:12.024Z,115.70
2023-04-16T04:37:12.386Z,103.40
2023-04-16T04:38:13.578Z,105.00
2023-04-16T04:39:12.124Z,116.90
2023-04-16T04:40:12.537Z,110.30
2023-04-16T04:41:12.031Z,107.80
2023-04-16T04:42:11.970Z,112.20
2023-04-16T04:43:11.957Z,98.30
2023-04-16T04:44:12.048Z,96.90
2023-04-16T04:45:12.033Z,95.50
2023-04-16T04:46:12.182Z,102.30
2023-04-16T04:47:12.184Z,108.20
2023-04-16T04:48:12.232Z,96.80
2023-04-16T04:49:12.036Z,99.10
2023-04-16T04:50:12.325Z,105.70
2023-04-16T04:51:12.142Z,108.70
2023-04-16T04:52:12.237Z,102.40
2023-04-16T04:53:12.395Z,119.30
2023-04-16T04:54:12.353Z,103.00
2023-04-16T04:55:12.561Z,118.00
2023-04-16T04:56:13.234Z,116.70
2023-04-16T04:57:12.157Z,111.90
2023-04-16T04:58:11.974Z,109.70
2023-04-16T04:59:12.378Z,111.00
2023-04-16T05:00:12.669Z,104.30
2023-04-16T05:01:12.122Z,117.60
2023-04-16T05:02:11.893Z,108.70
2023-04-16T05:03:11.928Z,122.10
2023-04-16T05:04:12.058Z,117.20
2023-04-16T05:05:11.877Z,112.80
2023-04-16T05:06:11.819Z,113.40
2023-04-16T05:07:11.876Z,102.90
2023-04-16T05:08:11.918Z,102.10
2023-04-16T05:09:12.060Z,106.80
2023-04-16T05:10:11.781Z,107.50
2023-04-16T05:11:11.799Z,116.30
2023-04-16T05:12:11.761Z,108.40
2023-04-16T05:13:11.825Z,128.00
2023-04-16T05:14:11.835Z,116.50
2023-04-16T05:15:11.751Z,114.70
2023-04-16T05:16:11.800Z,105.90
2023-04-16T05:17:11.750Z,112.60
2023-04-16T05:18:11.720Z,106.30
2023-04-16T05:19:11.968Z,114.20
2023-04-16T05:20:11.703Z,101.40
2023-04-16T05:21:11.727Z,101.30
2023-04-16T05:22:11.822Z,107.90
2023-04-16T05:23:11.680Z,92.50
2023-04-16T05:24:13.067Z,104.60
2023-04-16T05:25:11.873Z,104.60
2023-04-16T05:26:11.681Z,97.80
2023-04-16T05:27:11.660Z,100.50
2023-04-16T05:28:11.655Z,100.30
2023-04-16T05:29:11.842Z,109.60
2023-04-16T05:30:11.733Z,107.30
2023-04-16T05:31:11.829Z,106.10
2023-04-16T05:32:11.847Z,102.50
2023-04-16T05:33:11.622Z,99.40
2023-04-16T05:34:11.948Z,106.10
2023-04-16T05:35:12.019Z,95.80
2023-04-16T05:36:12.038Z,92.90
2023-04-16T05:37:11.589Z,101.10
2023-04-16T05:38:11.988Z,105.10
2023-04-16T05:39:12.166Z,105.90
2023-04-16T05:40:12.058Z,109.50
2023-04-16T05:41:11.570Z,100.20
2023-04-16T05:42:11.553Z,97.20
2023-04-16T05:43:11.976Z,100.00
2023-04-16T05:44:12.118Z,98.40
2023-04-16T05:45:12.124Z,92.00
2023-04-16T05:46:12.247Z,97.90
2023-04-16T05:47:11.550Z,109.90
2023-04-16T05:48:11.518Z,107.60
2023-04-16T05:49:12.268Z,107.30
2023-04-16T05:50:11.840Z,99.80
2023-04-16T05:51:12.153Z,106.60
2023-04-16T05:52:12.209Z,99.80
2023-04-16T05:53:12.221Z,93.80
2023-04-16T05:54:12.224Z,98.50
2023-04-16T05:55:11.884Z,92.10
2023-04-16T05:56:11.480Z,103.40
2023-04-16T05:57:11.478Z,88.50
2023-04-16T05:58:11.527Z,96.50
2023-04-16T05:59:11.818Z,92.60
2023-04-16T06:00:11.475Z,93.80
2023-04-16T06:01:11.673Z,89.30
2023-04-16T06:02:11.528Z,96.50
2023-04-16T06:03:11.637Z,96.70
2023-04-16T06:04:11.622Z,90.20
2023-04-16T06:05:11.466Z,87.40
2023-04-16T06:06:11.442Z,87.50
2023-04-16T06:07:11.395Z,92.70
2023-04-16T06:08:11.401Z,90.70
2023-04-16T06:09:11.726Z,88.90
2023-04-16T06:10:11.429Z,87.70
2023-04-16T06:11:11.407Z,92.90
2023-04-16T06:12:11.437Z,88.80
2023-04-16T06:13:11.458Z,84.70
2023-04-16T06:14:11.403Z,91.80
2023-04-16T06:15:11.363Z,87.70
2023-04-16T06:16:11.554Z,89.60
2023-04-16T06:17:11.508Z,95.10
2023-04-16T06:18:11.572Z,81.10
2023-04-16T06:19:11.705Z,84.70
2023-04-16T06:20:11.313Z,87.40
2023-04-16T06:21:12.765Z,89.60
2023-04-16T06:22:11.349Z,83.20
2023-04-16T06:23:11.360Z,93.50
2023-04-16T06:24:11.272Z,89.10
2023-04-16T06:25:11.319Z,89.00
2023-04-16T06:26:11.381Z,89.90
2023-04-16T06:27:11.433Z,92.50
2023-04-16T06:28:11.449Z,92.90
2023-04-16T06:29:11.589Z,91.50
2023-04-16T06:30:11.329Z,84.30
2023-04-16T06:31:11.354Z,92.70
2023-04-16T06:32:11.226Z,89.70
2023-04-16T06:33:11.217Z,89.80
2023-04-16T06:34:11.200Z,86.20
2023-04-16T06:35:11.219Z,90.50
2023-04-16T06:36:11.295Z,89.10
2023-04-16T06:37:11.314Z,84.50
2023-04-16T06:38:11.192Z,86.30
2023-04-16T06:39:11.362Z,89.60
2023-04-16T06:40:11.304Z,84.90
2023-04-16T06:41:11.301Z,83.20
2023-04-16T06:42:11.544Z,85.60
2023-04-16T06:43:11.591Z,91.40
2023-04-16T06:44:11.663Z,87.80
2023-04-16T06:45:11.682Z,87.40
2023-04-16T06:46:11.477Z,88.50
2023-04-16T06:47:11.576Z,91.30
2023-04-16T06:48:11.247Z,90.20
2023-04-16T06:49:11.937Z,84.70
2023-04-16T06:50:11.928Z,83.50
2023-04-16T06:51:11.259Z,84.90
2023-04-16T06:52:11.220Z,84.30
2023-04-16T06:53:11.396Z,85.00
2023-04-16T06:54:11.095Z,85.60
2023-04-16T06:55:11.995Z,82.70
2023-04-16T06:56:11.658Z,84.80
2023-04-16T06:57:11.947Z,79.50
2023-04-16T06:58:12.034Z,81.10
2023-04-16T06:59:12.068Z,83.70
2023-04-16T07:00:11.463Z,81.50
2023-04-16T07:01:11.295Z,81.30
2023-04-16T07:02:12.023Z,81.60
2023-04-16T07:03:11.519Z,84.50
2023-04-16T07:04:11.200Z,83.90
2023-04-16T07:05:11.395Z,83.90
2023-04-16T07:06:11.792Z,78.80
2023-04-16T07:07:11.949Z,85.40
2023-04-16T07:08:11.746Z,79.20
2023-04-16T07:09:11.698Z,79.30
2023-04-16T07:10:11.620Z,75.10
2023-04-16T07:11:11.284Z,73.60
2023-04-16T07:12:10.941Z,76.60
2023-04-16T07:13:10.971Z,77.00
2023-04-16T07:14:11.023Z,66.10
2023-04-16T07:15:11.067Z,69.70
2023-04-16T07:16:11.123Z,66.50
2023-04-16T07:17:10.923Z,74.10
2023-04-16T07:18:10.933Z,72.30
2023-04-16T07:19:11.104Z,72.80
2023-04-16T07:20:10.922Z,72.00
2023-04-16T07:21:11.319Z,70.90
2023-04-16T07:22:10.913Z,70.30
2023-04-16T07:23:10.956Z,68.10
2023-04-16T07:24:10.872Z,72.50
2023-04-16T07:25:10.871Z,73.30
2023-04-16T07:26:10.944Z,75.30
2023-04-16T07:27:11.130Z,71.00
2023-04-16T07:28:10.873Z,72.80
2023-04-16T07:29:11.209Z,72.40
2023-04-16T07:30:11.247Z,70.70
2023-04-16T07:31:10.833Z,70.60
2023-04-16T07:32:12.024Z,75.10
2023-04-16T07:33:10.889Z,76.40
2023-04-16T07:34:10.805Z,78.20
2023-04-16T07:35:11.140Z,75.00
2023-04-16T07:36:10.804Z,72.10
2023-04-16T07:37:11.309Z,76.20
2023-04-16T07:38:10.821Z,75.20
2023-04-16T07:39:11.111Z,78.00
2023-04-16T07:40:10.816Z,73.50
2023-04-16T07:41:11.166Z,75.80
2023-04-16T07:42:11.528Z,78.10
2023-04-16T07:43:11.250Z,73.20
2023-04-16T07:44:11.212Z,81.40
2023-04-16T07:45:11.693Z,84.60
2023-04-16T07:46:10.826Z,81.70
2023-04-16T07:47:10.996Z,75.80
2023-04-16T07:48:10.708Z,87.40
2023-04-16T07:49:10.908Z,80.50
2023-04-16T07:50:10.699Z,80.40
2023-04-16T07:51:10.700Z,83.60
2023-04-16T07:52:10.717Z,91.00
2023-04-16T07:53:10.834Z,88.60
2023-04-16T07:54:10.854Z,90.10
2023-04-16T07:55:10.858Z,84.60
2023-04-16T07:56:10.685Z,80.60
2023-04-16T07:57:10.639Z,82.60
2023-04-16T07:58:10.990Z,84.20
2023-04-16T07:59:21.907Z,88.80
2023-04-16T08:00:11.075Z,82.60
2023-04-16T08:01:10.612Z,82.30
2023-04-16T08:02:11.238Z,83.40
2023-04-16T08:03:10.754Z,79.20
2023-04-16T08:04:10.758Z,78.60
2023-04-16T08:05:11.340Z,79.40
2023-04-16T08:06:10.678Z,77.50
2023-04-16T08:07:10.564Z,76.40
2023-04-16T08:08:10.555Z,79.40
2023-04-16T08:09:10.794Z,79.80
2023-04-16T08:10:10.709Z,78.70
2023-04-16T08:11:10.590Z,74.00
2023-04-16T08:12:10.890Z,79.10
2023-04-16T08:13:10.540Z,72.10
2023-04-16T08:14:10.520Z,83.80
2023-04-16T08:15:10.695Z,80.00
2023-04-16T08:16:10.567Z,78.70
2023-04-16T08:17:11.422Z,90.10
2023-04-16T08:18:10.497Z,86.70
2023-04-16T08:19:10.869Z,88.80
2023-04-16T08:20:13.060Z,88.40
2023-04-16T08:21:10.506Z,86.60
2023-04-16T08:22:10.480Z,88.80
2023-04-16T08:23:10.528Z,86.40
2023-04-16T08:24:10.573Z,85.90
2023-04-16T08:25:10.617Z,94.10
2023-04-16T08:26:10.629Z,87.20
2023-04-16T08:27:18.356Z,88.70
2023-04-16T08:28:10.545Z,88.00
2023-04-16T08:29:10.789Z,90.80
2023-04-16T08:30:10.482Z,90.30
2023-04-16T08:31:10.572Z,91.10
2023-04-16T08:32:10.564Z,90.10
2023-04-16T08:33:10.672Z,87.60
2023-04-16T08:34:10.664Z,86.80
2023-04-16T08:35:10.712Z,88.50
2023-04-16T08:36:10.624Z,91.70
2023-04-16T08:37:10.809Z,84.80
2023-04-16T08:38:10.838Z,93.20
2023-04-16T08:39:10.750Z,90.50
2023-04-16T08:40:10.887Z,91.40
2023-04-16T08:41:11.310Z,86.30
2023-04-16T08:42:11.057Z,83.80
2023-04-16T08:43:11.065Z,91.00
2023-04-16T08:44:10.614Z,83.50
2023-04-16T08:45:10.361Z,87.50
2023-04-16T08:46:10.450Z,84.90
2023-04-16T08:47:11.268Z,85.30
2023-04-16T08:48:11.276Z,84.80
2023-04-16T08:49:10.560Z,79.00
2023-04-16T08:50:11.361Z,84.40
2023-04-16T08:51:10.275Z,85.10
2023-04-16T08:52:10.312Z,84.60
2023-04-16T08:53:11.204Z,84.30
2023-04-16T08:54:10.732Z,81.20
2023-04-16T08:55:10.275Z,82.00
2023-04-16T08:56:10.640Z,86.20
2023-04-16T08:57:11.178Z,86.00
2023-04-16T08:58:10.220Z,86.20
2023-04-16T08:59:10.903Z,83.00
2023-04-16T09:00:10.239Z,87.90
2023-04-16T09:01:11.223Z,89.30
2023-04-16T09:02:10.232Z,79.20
2023-04-16T09:03:10.308Z,83.60
2023-04-16T09:04:10.325Z,84.60
2023-04-16T09:05:10.205Z,85.50
2023-04-16T09:06:10.182Z,84.50
2023-04-16T09:07:10.169Z,81.40
2023-04-16T09:08:10.220Z,83.30
2023-04-16T09:09:10.488Z,80.50
2023-04-16T09:10:10.131Z,78.20
2023-04-16T09:11:10.369Z,82.30
2023-04-16T09:12:10.427Z,79.70
2023-04-16T09:13:10.471Z,79.40
2023-04-16T09:14:10.520Z,77.70
2023-04-16T09:15:10.565Z,81.10
2023-04-16T09:16:10.141Z,78.80
2023-04-16T09:17:10.103Z,74.70
2023-04-16T09:18:10.080Z,71.30
2023-04-16T09:19:10.348Z,77.90
2023-04-16T09:20:10.086Z,77.20
2023-04-16T09:21:10.059Z,81.60
2023-04-16T09:22:10.056Z,78.10
2023-04-16T09:23:10.064Z,78.90
2023-04-16T09:24:10.053Z,68.00
2023-04-16T09:25:10.114Z,76.80
2023-04-16T09:26:10.014Z,75.40
2023-04-16T09:27:10.059Z,79.80
2023-04-16T09:28:10.007Z,77.00
2023-04-16T09:29:10.300Z,78.90
2023-04-16T09:30:10.009Z,80.30
2023-04-16T09:31:09.996Z,79.90
2023-04-16T09:32:10.121Z,76.70
2023-04-16T09:33:09.994Z,73.40
2023-04-16T09:34:09.983Z,76.10
2023-04-16T09:35:10.033Z,73.70
2023-04-16T09:36:09.962Z,72.30
2023-04-16T09:37:09.942Z,72.10
2023-04-16T09:38:09.941Z,76.90
2023-04-16T09:39:10.075Z,71.30
2023-04-16T09:40:10.025Z,73.10
2023-04-16T09:41:10.044Z,71.10
2023-04-16T09:42:09.924Z,74.40
2023-04-16T09:43:09.918Z,75.20
2023-04-16T09:44:10.188Z,71.70
2023-04-16T09:45:09.899Z,66.60
2023-04-16T09:46:09.995Z,72.20
2023-04-16T09:47:09.892Z,67.90
2023-04-16T09:48:09.864Z,69.40
2023-04-16T09:49:10.278Z,69.90
2023-04-16T09:50:12.409Z,72.10
2023-04-16T09:51:09.854Z,70.10
2023-04-16T09:52:09.843Z,68.90
2023-04-16T09:53:09.861Z,68.30
2023-04-16T09:54:10.058Z,62.50
2023-04-16T09:55:09.845Z,65.30
2023-04-16T09:56:09.817Z,67.40
2023-04-16T09:57:10.366Z,64.50
2023-04-16T09:58:09.890Z,62.70
2023-04-16T09:59:09.995Z,59.90
2023-04-16T10:00:09.796Z,60.10
2023-04-16T10:01:09.807Z,58.20
2023-04-16T10:02:15.734Z,63.10
2023-04-16T10:03:10.529Z,60.60
2023-04-16T10:04:09.943Z,58.30
2023-04-16T10:05:10.477Z,58.70
2023-04-16T10:06:10.483Z,62.70
2023-04-16T10:07:09.762Z,54.80
2023-04-16T10:08:09.746Z,53.00
2023-04-16T10:09:10.055Z,56.30
2023-04-16T10:10:09.728Z,60.10
2023-04-16T10:11:09.722Z,59.50
2023-04-16T10:12:09.720Z,61.90
2023-04-16T10:13:10.002Z,53.30
2023-04-16T10:14:09.778Z,56.70
2023-04-16T10:15:09.690Z,57.60
2023-04-16T10:16:09.759Z,57.60
2023-04-16T10:17:09.906Z,57.80
2023-04-16T10:18:09.745Z,55.50
2023-04-16T10:19:10.007Z,56.80
2023-04-16T10:20:09.652Z,56.30
2023-04-16T10:21:09.652Z,57.60
2023-04-16T10:22:09.643Z,59.00
2023-04-16T10:23:09.640Z,58.20
2023-04-16T10:24:09.643Z,61.30
2023-04-16T10:25:09.618Z,58.60
2023-04-16T10:26:09.604Z,57.40
2023-04-16T10:27:09.599Z,53.10
2023-04-16T10:28:09.715Z,55.70
2023-04-16T10:29:09.942Z,58.60
2023-04-16T10:30:09.599Z,56.20
2023-04-16T10:31:09.797Z,52.10
2023-04-16T10:32:09.566Z,52.30
2023-04-16T10:33:09.614Z,57.60
2023-04-16T10:34:09.835Z,53.90
2023-04-16T10:35:09.569Z,56.80
2023-04-16T10:36:09.563Z,55.20
2023-04-16T10:37:09.553Z,57.20
2023-04-16T10:38:09.523Z,56.50
2023-04-16T10:39:09.662Z,56.60
2023-04-16T10:40:09.518Z,56.90
2023-04-16T10:41:09.511Z,49.90
2023-04-16T10:42:09.497Z,50.20
2023-04-16T10:43:09.494Z,56.60
2023-04-16T10:44:09.584Z,55.00
2023-04-16T10:45:09.490Z,51.50
2023-04-16T10:46:09.508Z,52.30
2023-04-16T10:47:09.473Z,53.40
2023-04-16T10:48:09.455Z,51.10
2023-04-16T10:49:09.669Z,49.10
2023-04-16T10:50:09.650Z,49.30
2023-04-16T10:51:09.463Z,52.10
2023-04-16T10:52:09.437Z,55.10
2023-04-16T10:53:09.414Z,52.50
2023-04-16T10:54:09.428Z,55.50
2023-04-16T10:55:10.112Z,51.40
2023-04-16T10:56:09.392Z,50.20
2023-04-16T10:57:09.414Z,50.90
2023-04-16T10:58:09.493Z,51.50
2023-04-16T10:59:09.602Z,52.60
2023-04-16T11:00:10.853Z,50.80
2023-04-16T11:01:09.370Z,51.90
2023-04-16T11:02:09.522Z,51.90
2023-04-16T11:03:09.515Z,52.10
2023-04-16T11:04:09.433Z,53.90
2023-04-16T11:05:09.675Z,49.30
2023-04-16T11:06:09.715Z,50.80
2023-04-16T11:07:09.330Z,51.60
2023-04-16T11:08:09.319Z,52.40
2023-04-16T11:09:09.467Z,53.20
2023-04-16T11:10:09.327Z,49.90
2023-04-16T11:11:09.301Z,55.90
2023-04-16T11:12:09.283Z,53.30
2023-04-16T11:13:09.287Z,49.40
2023-04-16T11:14:09.300Z,51.00
2023-04-16T11:15:09.395Z,50.90
2023-04-16T11:16:09.475Z,54.20
2023-04-16T11:17:09.309Z,50.60
2023-04-16T11:18:09.358Z,48.40
2023-04-16T11:19:09.468Z,51.60
2023-04-16T11:20:20.246Z,48.30
2023-04-16T11:21:09.226Z,48.70
2023-04-16T11:22:09.732Z,48.10
2023-04-16T11:23:09.777Z,47.90
2023-04-16T11:24:09.202Z,51.50
2023-04-16T11:25:09.272Z,50.10
2023-04-16T11:26:09.181Z,52.80
2023-04-16T11:27:09.179Z,50.50
2023-04-16T11:28:09.180Z,52.70
2023-04-16T11:29:09.346Z,49.40
2023-04-16T11:30:09.176Z,47.80
2023-04-16T11:31:10.205Z,50.60
2023-04-16T11:32:10.233Z,51.10
2023-04-16T11:33:09.139Z,50.60
2023-04-16T11:34:09.141Z,48.60
2023-04-16T11:35:10.082Z,45.70
2023-04-16T11:36:09.127Z,46.50
2023-04-16T11:37:09.113Z,48.10
2023-04-16T11:38:09.122Z,49.90
2023-04-16T11:39:09.527Z,47.10
2023-04-16T11:40:09.112Z,48.50
2023-04-16T11:41:09.073Z,51.90
2023-04-16T11:42:09.133Z,49.60
2023-04-16T11:43:09.095Z,46.40
2023-04-16T11:44:09.102Z,47.60
2023-04-16T11:45:09.327Z,46.20
2023-04-16T11:46:24.093Z,50.20
2023-04-16T11:47:09.668Z,52.50
2023-04-16T11:48:11.141Z,46.30
2023-04-16T11:49:09.459Z,49.30
2023-04-16T11:50:09.045Z,46.70
2023-04-16T11:51:09.015Z,47.50
2023-04-16T11:52:09.001Z,49.70
2023-04-16T11:53:08.996Z,52.10
2023-04-16T11:54:12.070Z,46.80
2023-04-16T11:55:09.966Z,44.90
2023-04-16T11:56:09.866Z,44.60
2023-04-16T11:57:08.980Z,46.50
2023-04-16T11:58:09.922Z,50.40
2023-04-16T11:59:09.228Z,45.90
2023-04-16T12:00:10.643Z,46.80
2023-04-16T12:01:08.970Z,46.50
2023-04-16T12:02:09.676Z,44.30
2023-04-16T12:03:09.387Z,46.10
2023-04-16T12:04:09.323Z,44.50
2023-04-16T12:05:09.020Z,46.20
2023-04-16T12:06:08.961Z,44.80
2023-04-16T12:07:08.920Z,45.20
2023-04-16T12:08:08.926Z,42.90
2023-04-16T12:09:09.139Z,42.90
2023-04-16T12:10:09.169Z,44.60
2023-04-16T12:11:09.173Z,44.60
2023-04-16T12:12:09.189Z,42.70
2023-04-16T12:13:08.968Z,42.00
2023-04-16T12:14:08.976Z,43.50
2023-04-16T12:15:08.879Z,43.60
2023-04-16T12:16:08.880Z,43.10
2023-04-16T12:17:08.910Z,39.30
2023-04-16T12:18:08.859Z,40.00
2023-04-16T12:19:09.293Z,40.00
2023-04-16T12:20:09.125Z,42.10
2023-04-16T12:21:08.809Z,38.90
2023-04-16T12:22:08.811Z,37.70
2023-04-16T12:23:08.789Z,38.00
2023-04-16T12:24:08.796Z,38.10
2023-04-16T12:25:08.816Z,39.50
2023-04-16T12:26:08.780Z,36.80
2023-04-16T12:27:08.771Z,37.90
2023-04-16T12:28:09.458Z,37.60
2023-04-16T12:29:09.711Z,37.40
2023-04-16T12:30:08.949Z,41.60
2023-04-16T12:31:08.761Z,35.20
2023-04-16T12:32:08.739Z,37.30
2023-04-16T12:33:08.822Z,35.20
2023-04-16T12:34:08.729Z,36.50
2023-04-16T12:35:09.715Z,38.40
2023-04-16T12:36:09.840Z,40.10
2023-04-16T12:37:08.690Z,38.40
2023-04-16T12:38:08.697Z,36.30
2023-04-16T12:39:08.909Z,37.10
2023-04-16T12:40:08.837Z,37.70
2023-04-16T12:41:08.671Z,36.40